sensor_id;sensor_type;location;lat;lon;timestamp;temperature;humidity
7894;DHT22;51343;51.396;6.656;2023-11-25T00:00:14;2.20;99.90
7894;DHT22;51343;51.396;6.656;2023-11-25T00:02:42;2.10;99.90
7894;DHT22;51343;51.396;6.656;2023-11-25T00:05:10;2.10;99.90
7894;DHT22;51343;51.396;6.656;2023-11-25T00:07:36;2.10;99.90
7894;DHT22;51343;51.396;6.656;2023-11-25T00:10:03;2.10;99.90
7894;DHT22;51343;51.396;6.656;2023-11-25T00:12:31;2.10;99.90
7894;DHT22;51343;51.396;6.656;2023-11-25T00:14:58;2.00;99.90
7894;DHT22;51343;51.396;6.656;2023-11-25T00:17:25;2.00;99.90
7894;DHT22;51343;51.396;6.656;2023-11-25T00:19:54;2.00;99.90
7894;DHT22;51343;51.396;6.656;2023-11-25T00:22:21;2.00;99.90
7894;DHT22;51343;51.396;6.656;2023-11-25T00:24:48;2.00;99.90
7894;DHT22;51343;51.396;6.656;2023-11-25T00:27:15;1.90;99.90
7894;DHT22;51343;51.396;6.656;2023-11-25T00:29:41;1.80;99.90
7894;DHT22;51343;51.396;6.656;2023-11-25T00:32:08;1.90;99.90
7894;DHT22;51343;51.396;6.656;2023-11-25T00:34:35;1.90;99.90
7894;DHT22;51343;51.396;6.656;2023-11-25T00:37:02;1.80;99.90
7894;DHT22;51343;51.396;6.656;2023-11-25T00:39:30;1.80;99.90
7894;DHT22;51343;51.396;6.656;2023-11-25T00:41:56;1.80;99.90
7894;DHT22;51343;51.396;6.656;2023-11-25T00:44:23;1.80;99.90
7894;DHT22;51343;51.396;6.656;2023-11-25T00:46:50;1.70;99.90
7894;DHT22;51343;51.396;6.656;2023-11-25T00:49:17;1.80;99.90
7894;DHT22;51343;51.396;6.656;2023-11-25T00:51:44;1.80;99.90
7894;DHT22;51343;51.396;6.656;2023-11-25T00:54:11;1.80;99.90
7894;DHT22;51343;51.396;6.656;2023-11-25T00:56:39;1.80;99.90
7894;DHT22;51343;51.396;6.656;2023-11-25T00:59:05;1.80;99.90
7894;DHT22;51343;51.396;6.656;2023-11-25T01:01:33;1.70;99.90
7894;DHT22;51343;51.396;6.656;2023-11-25T01:04:00;1.70;99.90
7894;DHT22;51343;51.396;6.656;2023-11-25T01:06:26;1.70;99.90
7894;DHT22;51343;51.396;6.656;2023-11-25T01:08:53;1.70;99.90
7894;DHT22;51343;51.396;6.656;2023-11-25T01:11:19;1.60;99.90
7894;DHT22;51343;51.396;6.656;2023-11-25T01:13:47;1.60;99.90
7894;DHT22;51343;51.396;6.656;2023-11-25T01:16:14;1.70;99.90
7894;DHT22;51343;51.396;6.656;2023-11-25T01:18:41;1.70;99.90
7894;DHT22;51343;51.396;6.656;2023-11-25T01:21:07;1.70;99.90
7894;DHT22;51343;51.396;6.656;2023-11-25T01:23:34;1.70;99.90
7894;DHT22;51343;51.396;6.656;2023-11-25T01:26:01;1.70;99.90
7894;DHT22;51343;51.396;6.656;2023-11-25T01:28:28;1.60;99.90
7894;DHT22;51343;51.396;6.656;2023-11-25T01:30:56;1.70;99.90
7894;DHT22;51343;51.396;6.656;2023-11-25T01:33:24;1.70;99.90
7894;DHT22;51343;51.396;6.656;2023-11-25T01:35:51;1.70;99.90
7894;DHT22;51343;51.396;6.656;2023-11-25T01:38:18;1.70;99.90
7894;DHT22;51343;51.396;6.656;2023-11-25T01:40:44;1.70;99.90
7894;DHT22;51343;51.396;6.656;2023-11-25T01:43:11;1.70;99.90
7894;DHT22;51343;51.396;6.656;2023-11-25T01:45:39;1.70;99.90
7894;DHT22;51343;51.396;6.656;2023-11-25T01:48:07;1.70;99.90
7894;DHT22;51343;51.396;6.656;2023-11-25T01:50:34;1.70;99.90
7894;DHT22;51343;51.396;6.656;2023-11-25T01:53:03;1.70;99.90
7894;DHT22;51343;51.396;6.656;2023-11-25T01:55:31;1.60;99.90
7894;DHT22;51343;51.396;6.656;2023-11-25T01:57:58;1.60;99.90
7894;DHT22;51343;51.396;6.656;2023-11-25T02:00:25;1.60;99.90
7894;DHT22;51343;51.396;6.656;2023-11-25T02:02:53;1.60;99.90
7894;DHT22;51343;51.396;6.656;2023-11-25T02:05:24;1.60;99.90
7894;DHT22;51343;51.396;6.656;2023-11-25T02:07:52;1.50;99.90
7894;DHT22;51343;51.396;6.656;2023-11-25T02:10:19;1.50;99.90
7894;DHT22;51343;51.396;6.656;2023-11-25T02:12:45;1.50;99.90
7894;DHT22;51343;51.396;6.656;2023-11-25T02:15:12;1.50;99.90
7894;DHT22;51343;51.396;6.656;2023-11-25T02:17:40;1.40;99.90
7894;DHT22;51343;51.396;6.656;2023-11-25T02:20:08;1.40;99.90
7894;DHT22;51343;51.396;6.656;2023-11-25T02:22:37;1.40;99.90
7894;DHT22;51343;51.396;6.656;2023-11-25T02:25:05;1.40;99.90
7894;DHT22;51343;51.396;6.656;2023-11-25T02:27:32;1.40;99.90
7894;DHT22;51343;51.396;6.656;2023-11-25T02:30:00;1.40;99.90
7894;DHT22;51343;51.396;6.656;2023-11-25T02:32:28;1.30;99.90
7894;DHT22;51343;51.396;6.656;2023-11-25T02:34:54;1.30;99.90
7894;DHT22;51343;51.396;6.656;2023-11-25T02:37:21;1.30;99.90
7894;DHT22;51343;51.396;6.656;2023-11-25T02:39:48;1.40;99.90
7894;DHT22;51343;51.396;6.656;2023-11-25T02:42:16;1.30;99.90
7894;DHT22;51343;51.396;6.656;2023-11-25T02:44:43;1.30;99.90
7894;DHT22;51343;51.396;6.656;2023-11-25T02:47:09;1.30;99.90
7894;DHT22;51343;51.396;6.656;2023-11-25T02:49:36;1.30;99.90
7894;DHT22;51343;51.396;6.656;2023-11-25T02:52:03;1.30;99.90
7894;DHT22;51343;51.396;6.656;2023-11-25T02:54:30;1.30;99.90
7894;DHT22;51343;51.396;6.656;2023-11-25T02:56:57;1.30;99.90
7894;DHT22;51343;51.396;6.656;2023-11-25T02:59:24;1.40;99.90
7894;DHT22;51343;51.396;6.656;2023-11-25T03:01:51;1.40;99.90
7894;DHT22;51343;51.396;6.656;2023-11-25T03:04:18;1.40;99.90
7894;DHT22;51343;51.396;6.656;2023-11-25T03:06:45;1.50;99.90
7894;DHT22;51343;51.396;6.656;2023-11-25T03:09:13;1.50;99.90
7894;DHT22;51343;51.396;6.656;2023-11-25T03:11:40;1.50;99.90
7894;DHT22;51343;51.396;6.656;2023-11-25T03:14:06;1.50;99.90
7894;DHT22;51343;51.396;6.656;2023-11-25T03:16:34;1.50;99.90
7894;DHT22;51343;51.396;6.656;2023-11-25T03:19:01;1.50;99.90
7894;DHT22;51343;51.396;6.656;2023-11-25T03:21:28;1.50;99.90
7894;DHT22;51343;51.396;6.656;2023-11-25T03:23:55;1.60;99.90
7894;DHT22;51343;51.396;6.656;2023-11-25T03:26:22;1.60;99.90
7894;DHT22;51343;51.396;6.656;2023-11-25T03:28:50;1.70;99.90
7894;DHT22;51343;51.396;6.656;2023-11-25T03:31:16;1.70;99.90
7894;DHT22;51343;51.396;6.656;2023-11-25T03:33:44;1.80;99.90
7894;DHT22;51343;51.396;6.656;2023-11-25T03:36:11;1.80;99.90
7894;DHT22;51343;51.396;6.656;2023-11-25T03:38:38;1.80;99.90
7894;DHT22;51343;51.396;6.656;2023-11-25T03:41:05;1.80;99.90
7894;DHT22;51343;51.396;6.656;2023-11-25T03:43:31;1.80;99.90
7894;DHT22;51343;51.396;6.656;2023-11-25T03:45:58;1.80;99.90
7894;DHT22;51343;51.396;6.656;2023-11-25T03:48:25;1.70;99.90
7894;DHT22;51343;51.396;6.656;2023-11-25T03:50:53;1.70;99.90
7894;DHT22;51343;51.396;6.656;2023-11-25T03:53:19;1.60;99.90
7894;DHT22;51343;51.396;6.656;2023-11-25T03:55:46;1.60;99.90
7894;DHT22;51343;51.396;6.656;2023-11-25T03:58:13;1.60;99.90
7894;DHT22;51343;51.396;6.656;2023-11-25T04:00:39;1.50;99.90
7894;DHT22;51343;51.396;6.656;2023-11-25T04:03:06;1.50;99.90
7894;DHT22;51343;51.396;6.656;2023-11-25T04:05:32;1.50;99.90
7894;DHT22;51343;51.396;6.656;2023-11-25T04:08:00;1.50;99.90
7894;DHT22;51343;51.396;6.656;2023-11-25T04:10:27;1.40;99.90
7894;DHT22;51343;51.396;6.656;2023-11-25T04:12:56;1.40;99.90
7894;DHT22;51343;51.396;6.656;2023-11-25T04:15:23;1.30;99.90
7894;DHT22;51343;51.396;6.656;2023-11-25T04:17:50;1.30;99.90
7894;DHT22;51343;51.396;6.656;2023-11-25T04:20:16;1.30;99.90
7894;DHT22;51343;51.396;6.656;2023-11-25T04:22:49;1.20;99.90
7894;DHT22;51343;51.396;6.656;2023-11-25T04:25:17;1.20;99.90
7894;DHT22;51343;51.396;6.656;2023-11-25T04:27:45;1.20;99.90
7894;DHT22;51343;51.396;6.656;2023-11-25T04:30:13;1.20;99.90
7894;DHT22;51343;51.396;6.656;2023-11-25T04:32:42;1.10;99.90
7894;DHT22;51343;51.396;6.656;2023-11-25T04:35:09;1.10;99.90
7894;DHT22;51343;51.396;6.656;2023-11-25T04:37:36;1.10;99.90
7894;DHT22;51343;51.396;6.656;2023-11-25T04:40:03;1.20;99.90
7894;DHT22;51343;51.396;6.656;2023-11-25T04:42:32;1.20;99.90
7894;DHT22;51343;51.396;6.656;2023-11-25T04:44:58;1.20;99.90
7894;DHT22;51343;51.396;6.656;2023-11-25T04:47:25;1.20;99.90
7894;DHT22;51343;51.396;6.656;2023-11-25T04:49:52;1.30;99.90
7894;DHT22;51343;51.396;6.656;2023-11-25T04:52:19;1.40;99.90
7894;DHT22;51343;51.396;6.656;2023-11-25T04:54:46;1.50;99.90
7894;DHT22;51343;51.396;6.656;2023-11-25T04:57:14;1.50;99.90
7894;DHT22;51343;51.396;6.656;2023-11-25T04:59:42;1.60;99.90
7894;DHT22;51343;51.396;6.656;2023-11-25T05:02:08;1.60;99.90
7894;DHT22;51343;51.396;6.656;2023-11-25T05:04:35;1.70;99.90
7894;DHT22;51343;51.396;6.656;2023-11-25T05:07:02;1.70;99.90
7894;DHT22;51343;51.396;6.656;2023-11-25T05:09:29;1.80;99.90
7894;DHT22;51343;51.396;6.656;2023-11-25T05:11:55;1.80;99.90
7894;DHT22;51343;51.396;6.656;2023-11-25T05:14:22;1.90;99.90
7894;DHT22;51343;51.396;6.656;2023-11-25T05:16:49;1.90;99.90
7894;DHT22;51343;51.396;6.656;2023-11-25T05:19:15;1.90;99.90
7894;DHT22;51343;51.396;6.656;2023-11-25T05:21:42;2.00;99.90
7894;DHT22;51343;51.396;6.656;2023-11-25T05:24:09;2.00;99.90
7894;DHT22;51343;51.396;6.656;2023-11-25T05:26:35;2.10;99.90
7894;DHT22;51343;51.396;6.656;2023-11-25T05:29:02;2.10;99.90
7894;DHT22;51343;51.396;6.656;2023-11-25T05:31:28;2.10;99.90
7894;DHT22;51343;51.396;6.656;2023-11-25T05:33:56;2.20;99.90
7894;DHT22;51343;51.396;6.656;2023-11-25T05:36:23;2.20;99.90
7894;DHT22;51343;51.396;6.656;2023-11-25T05:38:50;2.20;99.90
7894;DHT22;51343;51.396;6.656;2023-11-25T05:41:16;2.30;99.90
7894;DHT22;51343;51.396;6.656;2023-11-25T05:43:44;2.30;99.90
7894;DHT22;51343;51.396;6.656;2023-11-25T05:46:19;2.30;99.90
7894;DHT22;51343;51.396;6.656;2023-11-25T05:48:46;2.30;99.90
7894;DHT22;51343;51.396;6.656;2023-11-25T05:51:14;2.30;99.90
7894;DHT22;51343;51.396;6.656;2023-11-25T05:53:41;2.40;99.90
7894;DHT22;51343;51.396;6.656;2023-11-25T05:56:08;2.40;99.90
7894;DHT22;51343;51.396;6.656;2023-11-25T05:58:34;2.50;99.90
7894;DHT22;51343;51.396;6.656;2023-11-25T06:01:01;2.50;99.90
7894;DHT22;51343;51.396;6.656;2023-11-25T06:03:28;2.50;99.90
7894;DHT22;51343;51.396;6.656;2023-11-25T06:05:55;2.60;99.90
7894;DHT22;51343;51.396;6.656;2023-11-25T06:08:23;2.60;99.90
7894;DHT22;51343;51.396;6.656;2023-11-25T06:10:50;2.60;99.90
7894;DHT22;51343;51.396;6.656;2023-11-25T06:13:16;2.70;99.90
7894;DHT22;51343;51.396;6.656;2023-11-25T06:15:43;2.60;99.90
7894;DHT22;51343;51.396;6.656;2023-11-25T06:18:09;2.70;99.90
7894;DHT22;51343;51.396;6.656;2023-11-25T06:20:38;2.60;99.90
7894;DHT22;51343;51.396;6.656;2023-11-25T06:23:05;2.60;99.90
7894;DHT22;51343;51.396;6.656;2023-11-25T06:25:33;2.50;99.90
7894;DHT22;51343;51.396;6.656;2023-11-25T06:27:59;2.50;99.90
7894;DHT22;51343;51.396;6.656;2023-11-25T06:30:26;2.60;99.90
7894;DHT22;51343;51.396;6.656;2023-11-25T06:32:53;2.60;99.90
7894;DHT22;51343;51.396;6.656;2023-11-25T06:35:19;2.50;99.90
7894;DHT22;51343;51.396;6.656;2023-11-25T06:37:48;2.50;99.90
7894;DHT22;51343;51.396;6.656;2023-11-25T06:40:15;2.50;99.90
7894;DHT22;51343;51.396;6.656;2023-11-25T06:42:43;2.40;99.90
7894;DHT22;51343;51.396;6.656;2023-11-25T06:45:10;2.30;99.90
7894;DHT22;51343;51.396;6.656;2023-11-25T06:47:39;2.30;99.90
7894;DHT22;51343;51.396;6.656;2023-11-25T06:50:06;2.30;99.90
7894;DHT22;51343;51.396;6.656;2023-11-25T06:52:33;2.20;99.90
7894;DHT22;51343;51.396;6.656;2023-11-25T06:54:59;2.20;99.90
7894;DHT22;51343;51.396;6.656;2023-11-25T06:57:26;2.10;99.90
7894;DHT22;51343;51.396;6.656;2023-11-25T06:59:54;2.10;99.90
7894;DHT22;51343;51.396;6.656;2023-11-25T07:02:21;2.10;99.90
7894;DHT22;51343;51.396;6.656;2023-11-25T07:04:51;2.10;99.90
7894;DHT22;51343;51.396;6.656;2023-11-25T07:07:17;2.10;99.90
7894;DHT22;51343;51.396;6.656;2023-11-25T07:09:44;2.10;99.90
7894;DHT22;51343;51.396;6.656;2023-11-25T07:12:10;2.10;99.90
7894;DHT22;51343;51.396;6.656;2023-11-25T07:14:40;2.10;99.90
7894;DHT22;51343;51.396;6.656;2023-11-25T07:17:09;2.00;99.90
7894;DHT22;51343;51.396;6.656;2023-11-25T07:19:38;2.00;99.90
7894;DHT22;51343;51.396;6.656;2023-11-25T07:22:06;2.00;99.90
7894;DHT22;51343;51.396;6.656;2023-11-25T07:24:33;2.00;99.90
7894;DHT22;51343;51.396;6.656;2023-11-25T07:27:00;2.00;99.90
7894;DHT22;51343;51.396;6.656;2023-11-25T07:29:30;2.10;99.90
7894;DHT22;51343;51.396;6.656;2023-11-25T07:31:57;2.10;99.90
7894;DHT22;51343;51.396;6.656;2023-11-25T07:34:25;2.20;99.90
7894;DHT22;51343;51.396;6.656;2023-11-25T07:36:53;2.20;99.90
7894;DHT22;51343;51.396;6.656;2023-11-25T07:39:20;2.30;99.90
7894;DHT22;51343;51.396;6.656;2023-11-25T07:41:49;2.40;99.90
7894;DHT22;51343;51.396;6.656;2023-11-25T07:44:19;2.50;99.90
7894;DHT22;51343;51.396;6.656;2023-11-25T07:46:47;2.60;99.90
7894;DHT22;51343;51.396;6.656;2023-11-25T07:49:13;2.60;99.90
7894;DHT22;51343;51.396;6.656;2023-11-25T07:51:41;2.70;99.90
7894;DHT22;51343;51.396;6.656;2023-11-25T07:54:08;2.80;99.90
7894;DHT22;51343;51.396;6.656;2023-11-25T07:56:34;2.80;99.90
7894;DHT22;51343;51.396;6.656;2023-11-25T07:59:01;2.90;99.90
7894;DHT22;51343;51.396;6.656;2023-11-25T08:01:27;2.90;99.90
7894;DHT22;51343;51.396;6.656;2023-11-25T08:03:54;2.90;99.90
7894;DHT22;51343;51.396;6.656;2023-11-25T08:06:20;3.00;99.90
7894;DHT22;51343;51.396;6.656;2023-11-25T08:08:52;3.00;99.90
7894;DHT22;51343;51.396;6.656;2023-11-25T08:11:21;3.00;99.90
7894;DHT22;51343;51.396;6.656;2023-11-25T08:13:48;3.10;99.90
7894;DHT22;51343;51.396;6.656;2023-11-25T08:16:15;3.10;99.90
7894;DHT22;51343;51.396;6.656;2023-11-25T08:18:43;3.20;99.90
7894;DHT22;51343;51.396;6.656;2023-11-25T08:21:10;3.20;99.90
7894;DHT22;51343;51.396;6.656;2023-11-25T08:23:36;3.30;99.90
7894;DHT22;51343;51.396;6.656;2023-11-25T08:26:04;3.30;99.90
7894;DHT22;51343;51.396;6.656;2023-11-25T08:28:31;3.30;99.90
7894;DHT22;51343;51.396;6.656;2023-11-25T08:30:58;3.30;99.90
7894;DHT22;51343;51.396;6.656;2023-11-25T08:33:24;3.40;99.90
7894;DHT22;51343;51.396;6.656;2023-11-25T08:35:51;3.50;99.90
7894;DHT22;51343;51.396;6.656;2023-11-25T08:38:17;3.50;99.90
7894;DHT22;51343;51.396;6.656;2023-11-25T08:40:44;3.50;99.90
7894;DHT22;51343;51.396;6.656;2023-11-25T08:43:13;3.60;99.90
7894;DHT22;51343;51.396;6.656;2023-11-25T08:45:39;3.60;99.90
7894;DHT22;51343;51.396;6.656;2023-11-25T08:48:09;3.70;99.90
7894;DHT22;51343;51.396;6.656;2023-11-25T08:50:36;3.70;99.90
7894;DHT22;51343;51.396;6.656;2023-11-25T08:53:03;3.70;99.90
7894;DHT22;51343;51.396;6.656;2023-11-25T08:55:29;3.70;99.90
7894;DHT22;51343;51.396;6.656;2023-11-25T08:57:56;3.80;99.90
7894;DHT22;51343;51.396;6.656;2023-11-25T09:00:24;3.70;99.90
7894;DHT22;51343;51.396;6.656;2023-11-25T09:02:54;3.80;99.90
7894;DHT22;51343;51.396;6.656;2023-11-25T09:05:22;3.80;99.90
7894;DHT22;51343;51.396;6.656;2023-11-25T09:07:50;3.80;99.90
7894;DHT22;51343;51.396;6.656;2023-11-25T09:10:17;3.90;99.90
7894;DHT22;51343;51.396;6.656;2023-11-25T09:12:45;4.00;99.90
7894;DHT22;51343;51.396;6.656;2023-11-25T09:15:11;4.00;99.90
7894;DHT22;51343;51.396;6.656;2023-11-25T09:17:40;4.10;99.90
7894;DHT22;51343;51.396;6.656;2023-11-25T09:20:07;4.10;99.90
7894;DHT22;51343;51.396;6.656;2023-11-25T09:22:35;4.20;99.90
7894;DHT22;51343;51.396;6.656;2023-11-25T09:25:02;4.20;99.90
7894;DHT22;51343;51.396;6.656;2023-11-25T09:27:28;4.30;99.90
7894;DHT22;51343;51.396;6.656;2023-11-25T09:29:55;4.30;99.90
7894;DHT22;51343;51.396;6.656;2023-11-25T09:32:21;4.30;99.90
7894;DHT22;51343;51.396;6.656;2023-11-25T09:34:51;4.30;99.90
7894;DHT22;51343;51.396;6.656;2023-11-25T09:37:17;4.40;99.90
7894;DHT22;51343;51.396;6.656;2023-11-25T09:39:45;4.40;99.90
7894;DHT22;51343;51.396;6.656;2023-11-25T09:42:11;4.40;99.90
7894;DHT22;51343;51.396;6.656;2023-11-25T09:44:38;4.30;99.90
7894;DHT22;51343;51.396;6.656;2023-11-25T09:47:05;4.30;99.90
7894;DHT22;51343;51.396;6.656;2023-11-25T09:49:32;4.30;99.90
7894;DHT22;51343;51.396;6.656;2023-11-25T09:52:00;4.40;99.90
7894;DHT22;51343;51.396;6.656;2023-11-25T09:54:30;4.40;99.90
7894;DHT22;51343;51.396;6.656;2023-11-25T09:56:56;4.50;99.90
7894;DHT22;51343;51.396;6.656;2023-11-25T09:59:24;4.50;99.90
7894;DHT22;51343;51.396;6.656;2023-11-25T10:01:53;4.60;99.90
7894;DHT22;51343;51.396;6.656;2023-11-25T10:04:19;4.60;99.90
7894;DHT22;51343;51.396;6.656;2023-11-25T10:06:48;4.70;99.90
7894;DHT22;51343;51.396;6.656;2023-11-25T10:09:20;4.80;99.90
7894;DHT22;51343;51.396;6.656;2023-11-25T10:11:47;4.90;99.90
7894;DHT22;51343;51.396;6.656;2023-11-25T10:14:14;5.00;99.90
7894;DHT22;51343;51.396;6.656;2023-11-25T10:16:43;5.20;99.90
7894;DHT22;51343;51.396;6.656;2023-11-25T10:19:17;5.40;99.90
7894;DHT22;51343;51.396;6.656;2023-11-25T10:21:45;5.50;99.90
7894;DHT22;51343;51.396;6.656;2023-11-25T10:24:12;5.60;99.90
7894;DHT22;51343;51.396;6.656;2023-11-25T10:26:41;5.60;99.90
7894;DHT22;51343;51.396;6.656;2023-11-25T10:29:09;5.60;99.90
7894;DHT22;51343;51.396;6.656;2023-11-25T10:31:39;5.50;99.90
7894;DHT22;51343;51.396;6.656;2023-11-25T10:34:07;5.40;99.90
7894;DHT22;51343;51.396;6.656;2023-11-25T10:36:35;5.40;99.90
7894;DHT22;51343;51.396;6.656;2023-11-25T10:39:02;5.40;99.90
7894;DHT22;51343;51.396;6.656;2023-11-25T10:41:29;5.40;99.90
7894;DHT22;51343;51.396;6.656;2023-11-25T10:43:57;5.40;99.90
7894;DHT22;51343;51.396;6.656;2023-11-25T10:46:36;5.50;99.90
7894;DHT22;51343;51.396;6.656;2023-11-25T10:49:02;5.80;99.90
7894;DHT22;51343;51.396;6.656;2023-11-25T10:51:30;6.10;99.90
7894;DHT22;51343;51.396;6.656;2023-11-25T10:53:57;6.20;99.90
7894;DHT22;51343;51.396;6.656;2023-11-25T10:56:25;6.20;99.90
7894;DHT22;51343;51.396;6.656;2023-11-25T10:58:54;6.20;99.90
7894;DHT22;51343;51.396;6.656;2023-11-25T11:01:22;6.20;99.90
7894;DHT22;51343;51.396;6.656;2023-11-25T11:03:53;6.20;99.90
7894;DHT22;51343;51.396;6.656;2023-11-25T11:06:27;6.10;99.90
7894;DHT22;51343;51.396;6.656;2023-11-25T11:08:54;6.00;99.90
7894;DHT22;51343;51.396;6.656;2023-11-25T11:11:37;5.80;99.90
7894;DHT22;51343;51.396;6.656;2023-11-25T11:14:11;5.70;99.90
7894;DHT22;51343;51.396;6.656;2023-11-25T11:16:42;5.60;99.90
7894;DHT22;51343;51.396;6.656;2023-11-25T11:19:10;5.60;99.90
7894;DHT22;51343;51.396;6.656;2023-11-25T11:21:38;5.50;99.90
7894;DHT22;51343;51.396;6.656;2023-11-25T11:24:05;5.40;99.90
7894;DHT22;51343;51.396;6.656;2023-11-25T11:26:35;5.30;99.90
7894;DHT22;51343;51.396;6.656;2023-11-25T11:29:08;5.30;99.90
7894;DHT22;51343;51.396;6.656;2023-11-25T11:34:26;5.20;99.90
7894;DHT22;51343;51.396;6.656;2023-11-25T11:36:54;5.10;99.90
7894;DHT22;51343;51.396;6.656;2023-11-25T11:39:31;5.10;99.90
7894;DHT22;51343;51.396;6.656;2023-11-25T11:44:44;5.10;99.90
7894;DHT22;51343;51.396;6.656;2023-11-25T11:47:20;5.20;99.90
7894;DHT22;51343;51.396;6.656;2023-11-25T11:49:48;5.20;99.90
7894;DHT22;51343;51.396;6.656;2023-11-25T11:52:15;5.20;99.90
7894;DHT22;51343;51.396;6.656;2023-11-25T11:54:41;5.20;99.90
7894;DHT22;51343;51.396;6.656;2023-11-25T11:57:08;5.20;99.90
7894;DHT22;51343;51.396;6.656;2023-11-25T11:59:58;5.30;99.90
7894;DHT22;51343;51.396;6.656;2023-11-25T12:02:27;5.30;99.90
7894;DHT22;51343;51.396;6.656;2023-11-25T12:04:56;5.40;99.90
7894;DHT22;51343;51.396;6.656;2023-11-25T12:07:23;5.40;99.90
7894;DHT22;51343;51.396;6.656;2023-11-25T12:09:51;5.40;99.90
7894;DHT22;51343;51.396;6.656;2023-11-25T12:12:18;5.40;99.90
7894;DHT22;51343;51.396;6.656;2023-11-25T12:14:44;5.40;99.90
7894;DHT22;51343;51.396;6.656;2023-11-25T12:17:12;5.40;99.90
7894;DHT22;51343;51.396;6.656;2023-11-25T12:19:39;5.60;99.90
7894;DHT22;51343;51.396;6.656;2023-11-25T12:22:07;5.90;99.90
7894;DHT22;51343;51.396;6.656;2023-11-25T12:24:34;6.00;99.90
7894;DHT22;51343;51.396;6.656;2023-11-25T12:27:01;5.90;99.90
7894;DHT22;51343;51.396;6.656;2023-11-25T12:29:32;6.00;99.90
7894;DHT22;51343;51.396;6.656;2023-11-25T12:31:58;6.00;99.90
7894;DHT22;51343;51.396;6.656;2023-11-25T12:34:25;6.00;99.90
7894;DHT22;51343;51.396;6.656;2023-11-25T12:36:52;6.00;99.90
7894;DHT22;51343;51.396;6.656;2023-11-25T12:39:20;6.00;99.90
7894;DHT22;51343;51.396;6.656;2023-11-25T12:41:46;6.00;99.90
7894;DHT22;51343;51.396;6.656;2023-11-25T12:44:15;6.00;99.90
7894;DHT22;51343;51.396;6.656;2023-11-25T12:46:42;5.90;99.90
7894;DHT22;51343;51.396;6.656;2023-11-25T12:49:24;5.90;99.90
7894;DHT22;51343;51.396;6.656;2023-11-25T12:51:51;5.80;99.90
7894;DHT22;51343;51.396;6.656;2023-11-25T12:54:19;5.80;99.90
7894;DHT22;51343;51.396;6.656;2023-11-25T12:56:47;5.70;99.90
7894;DHT22;51343;51.396;6.656;2023-11-25T12:59:18;5.60;99.90
7894;DHT22;51343;51.396;6.656;2023-11-25T13:01:45;5.60;99.90
7894;DHT22;51343;51.396;6.656;2023-11-25T13:04:12;5.60;99.90
7894;DHT22;51343;51.396;6.656;2023-11-25T13:06:45;5.60;99.90
7894;DHT22;51343;51.396;6.656;2023-11-25T13:09:13;5.70;99.90
7894;DHT22;51343;51.396;6.656;2023-11-25T13:11:41;5.70;99.90
7894;DHT22;51343;51.396;6.656;2023-11-25T13:14:09;5.70;99.90
7894;DHT22;51343;51.396;6.656;2023-11-25T13:16:36;5.80;99.90
7894;DHT22;51343;51.396;6.656;2023-11-25T13:19:04;5.80;99.90
7894;DHT22;51343;51.396;6.656;2023-11-25T13:21:33;5.80;99.90
7894;DHT22;51343;51.396;6.656;2023-11-25T13:24:00;5.70;99.90
7894;DHT22;51343;51.396;6.656;2023-11-25T13:26:26;5.70;99.90
7894;DHT22;51343;51.396;6.656;2023-11-25T13:28:55;5.80;99.90
7894;DHT22;51343;51.396;6.656;2023-11-25T13:31:38;5.70;99.90
7894;DHT22;51343;51.396;6.656;2023-11-25T13:34:05;5.70;99.90
7894;DHT22;51343;51.396;6.656;2023-11-25T13:36:31;5.70;99.90
7894;DHT22;51343;51.396;6.656;2023-11-25T13:38:58;5.70;99.90
7894;DHT22;51343;51.396;6.656;2023-11-25T13:41:24;5.60;99.90
7894;DHT22;51343;51.396;6.656;2023-11-25T13:43:52;5.60;99.90
7894;DHT22;51343;51.396;6.656;2023-11-25T13:46:21;5.60;99.90
7894;DHT22;51343;51.396;6.656;2023-11-25T13:48:48;5.50;99.90
7894;DHT22;51343;51.396;6.656;2023-11-25T13:51:14;5.50;99.90
7894;DHT22;51343;51.396;6.656;2023-11-25T13:53:41;5.40;99.90
7894;DHT22;51343;51.396;6.656;2023-11-25T13:56:08;5.40;99.90
7894;DHT22;51343;51.396;6.656;2023-11-25T13:58:36;5.30;99.90
7894;DHT22;51343;51.396;6.656;2023-11-25T14:01:03;5.30;99.90
7894;DHT22;51343;51.396;6.656;2023-11-25T14:03:32;5.20;99.90
7894;DHT22;51343;51.396;6.656;2023-11-25T14:05:59;5.20;99.90
7894;DHT22;51343;51.396;6.656;2023-11-25T14:08:25;5.20;99.90
7894;DHT22;51343;51.396;6.656;2023-11-25T14:10:53;5.10;99.90
7894;DHT22;51343;51.396;6.656;2023-11-25T14:13:20;5.10;99.90
7894;DHT22;51343;51.396;6.656;2023-11-25T14:15:47;5.10;99.90
7894;DHT22;51343;51.396;6.656;2023-11-25T14:18:14;5.10;99.90
7894;DHT22;51343;51.396;6.656;2023-11-25T14:20:41;5.10;99.90
7894;DHT22;51343;51.396;6.656;2023-11-25T14:23:08;5.10;99.90
7894;DHT22;51343;51.396;6.656;2023-11-25T14:25:35;5.10;99.90
7894;DHT22;51343;51.396;6.656;2023-11-25T14:28:02;5.10;99.90
7894;DHT22;51343;51.396;6.656;2023-11-25T14:30:28;5.10;99.90
7894;DHT22;51343;51.396;6.656;2023-11-25T14:32:58;5.10;99.90
7894;DHT22;51343;51.396;6.656;2023-11-25T14:35:25;5.10;99.90
7894;DHT22;51343;51.396;6.656;2023-11-25T14:37:53;5.00;99.90
7894;DHT22;51343;51.396;6.656;2023-11-25T14:40:21;5.00;99.90
7894;DHT22;51343;51.396;6.656;2023-11-25T14:42:49;4.90;99.90
7894;DHT22;51343;51.396;6.656;2023-11-25T14:45:15;4.90;99.90
7894;DHT22;51343;51.396;6.656;2023-11-25T14:47:42;4.80;99.90
7894;DHT22;51343;51.396;6.656;2023-11-25T14:50:10;4.80;99.90
7894;DHT22;51343;51.396;6.656;2023-11-25T14:52:37;4.80;99.90
7894;DHT22;51343;51.396;6.656;2023-11-25T14:55:05;4.80;99.90
7894;DHT22;51343;51.396;6.656;2023-11-25T14:57:33;4.80;99.90
7894;DHT22;51343;51.396;6.656;2023-11-25T15:00:01;4.80;99.90
7894;DHT22;51343;51.396;6.656;2023-11-25T15:02:28;4.80;99.90
7894;DHT22;51343;51.396;6.656;2023-11-25T15:04:55;4.80;99.90
7894;DHT22;51343;51.396;6.656;2023-11-25T15:07:21;4.80;99.90
7894;DHT22;51343;51.396;6.656;2023-11-25T15:09:49;4.80;99.90
7894;DHT22;51343;51.396;6.656;2023-11-25T15:12:17;4.90;99.90
7894;DHT22;51343;51.396;6.656;2023-11-25T15:14:43;4.90;99.90
7894;DHT22;51343;51.396;6.656;2023-11-25T15:17:11;4.90;99.90
7894;DHT22;51343;51.396;6.656;2023-11-25T15:19:38;5.00;99.90
7894;DHT22;51343;51.396;6.656;2023-11-25T15:22:07;5.00;99.90
7894;DHT22;51343;51.396;6.656;2023-11-25T15:24:35;5.00;99.90
7894;DHT22;51343;51.396;6.656;2023-11-25T15:27:02;5.00;99.90
7894;DHT22;51343;51.396;6.656;2023-11-25T15:29:30;5.00;99.90
7894;DHT22;51343;51.396;6.656;2023-11-25T15:31:57;5.00;99.90
7894;DHT22;51343;51.396;6.656;2023-11-25T15:34:24;5.00;99.90
7894;DHT22;51343;51.396;6.656;2023-11-25T15:36:51;5.00;99.90
7894;DHT22;51343;51.396;6.656;2023-11-25T15:39:17;5.00;99.90
7894;DHT22;51343;51.396;6.656;2023-11-25T15:41:45;5.00;99.90
7894;DHT22;51343;51.396;6.656;2023-11-25T15:44:12;5.00;99.90
7894;DHT22;51343;51.396;6.656;2023-11-25T15:46:40;5.00;99.90
7894;DHT22;51343;51.396;6.656;2023-11-25T15:49:06;4.90;99.90
7894;DHT22;51343;51.396;6.656;2023-11-25T15:51:37;4.90;99.90
7894;DHT22;51343;51.396;6.656;2023-11-25T15:54:05;4.90;99.90
7894;DHT22;51343;51.396;6.656;2023-11-25T15:56:31;5.00;99.90
7894;DHT22;51343;51.396;6.656;2023-11-25T15:58:58;4.90;99.90
7894;DHT22;51343;51.396;6.656;2023-11-25T16:01:27;5.00;99.90
7894;DHT22;51343;51.396;6.656;2023-11-25T16:03:55;4.90;99.90
7894;DHT22;51343;51.396;6.656;2023-11-25T16:06:21;4.80;99.90
7894;DHT22;51343;51.396;6.656;2023-11-25T16:08:49;4.80;99.90